sensor_id;sensor_type;location;lat;lon;timestamp;pressure;altitude;pressure_sealevel;temperature;humidity
32789;BME280;19141;48.980;8.410;2022-07-23T04:22:45;100216.22;;;21.28;67.29
32789;BME280;19141;48.980;8.410;2022-07-23T04:25:11;100219.50;;;21.30;67.51
32789;BME280;19141;48.980;8.410;2022-07-23T04:27:36;100216.31;;;21.33;67.48
32789;BME280;19141;48.980;8.410;2022-07-23T04:30:02;100221.47;;;21.35;67.23
32789;BME280;19141;48.980;8.410;2022-07-23T04:32:28;100217.94;;;21.34;67.77
32789;BME280;19141;48.980;8.410;2022-07-23T04:34:54;100222.63;;;21.39;67.40
32789;BME280;19141;48.980;8.410;2022-07-23T04:37:19;100232.47;;;21.45;67.45
32789;BME280;19141;48.980;8.410;2022-07-23T04:39:45;100231.19;;;21.48;67.16
32789;BME280;19141;48.980;8.410;2022-07-23T04:42:11;100233.63;;;21.49;67.27
32789;BME280;19141;48.980;8.410;2022-07-23T04:44:36;100250.25;;;21.53;67.89
32789;BME280;19141;48.980;8.410;2022-07-23T04:47:03;100253.78;;;21.53;68.31
32789;BME280;19141;48.980;8.410;2022-07-23T04:49:29;100256.78;;;21.57;68.14
32789;BME280;19141;48.980;8.410;2022-07-23T04:51:54;100249.25;;;21.59;68.23
32789;BME280;19141;48.980;8.410;2022-07-23T04:54:20;100258.78;;;21.61;68.67
32789;BME280;19141;48.980;8.410;2022-07-23T04:56:45;100267.16;;;21.60;68.66
32789;BME280;19141;48.980;8.410;2022-07-23T04:59:11;100270.69;;;21.60;67.90
32789;BME280;19141;48.980;8.410;2022-07-23T05:01:37;100265.84;;;21.62;67.68
32789;BME280;19141;48.980;8.410;2022-07-23T05:04:02;100269.28;;;21.58;67.24
32789;BME280;19141;48.980;8.410;2022-07-23T05:06:32;100267.63;;;21.57;67.53
32789;BME280;19141;48.980;8.410;2022-07-23T05:08:57;100289.66;;;21.60;68.50
32789;BME280;19141;48.980;8.410;2022-07-23T05:11:23;100288.09;;;21.64;67.89
32789;BME280;19141;48.980;8.410;2022-07-23T05:13:48;100289.97;;;21.64;68.39
32789;BME280;19141;48.980;8.410;2022-07-23T05:16:14;100280.38;;;21.73;68.33
32789;BME280;19141;48.980;8.410;2022-07-23T05:18:41;100276.34;;;21.76;68.54
32789;BME280;19141;48.980;8.410;2022-07-23T05:21:06;100270.69;;;21.77;68.72
32789;BME280;19141;48.980;8.410;2022-07-23T05:23:33;100266.41;;;21.81;68.70
32789;BME280;19141;48.980;8.410;2022-07-23T05:25:59;100263.63;;;21.76;68.37
32789;BME280;19141;48.980;8.410;2022-07-23T05:28:26;100274.56;;;21.81;67.59
32789;BME280;19141;48.980;8.410;2022-07-23T05:30:52;100275.22;;;21.88;68.30
32789;BME280;19141;48.980;8.410;2022-07-23T05:33:19;100258.47;;;21.91;69.48
32789;BME280;19141;48.980;8.410;2022-07-23T05:35:44;100256.22;;;21.88;68.29
32789;BME280;19141;48.980;8.410;2022-07-23T05:38:31;100260.66;;;21.94;67.87
32789;BME280;19141;48.980;8.410;2022-07-23T05:40:58;100253.59;;;21.93;67.40
32789;BME280;19141;48.980;8.410;2022-07-23T05:43:26;100255.31;;;22.00;68.26
32789;BME280;19141;48.980;8.410;2022-07-23T05:45:51;100267.31;;;22.04;68.55
32789;BME280;19141;48.980;8.410;2022-07-23T05:48:17;100276.28;;;22.04;67.51
32789;BME280;19141;48.980;8.410;2022-07-23T05:51:03;100281.94;;;22.03;67.79
32789;BME280;19141;48.980;8.410;2022-07-23T05:53:32;100290.66;;;22.05;67.06
32789;BME280;19141;48.980;8.410;2022-07-23T05:56:01;100299.28;;;22.02;66.93
32789;BME280;19141;48.980;8.410;2022-07-23T05:58:28;100294.09;;;22.00;67.13
32789;BME280;19141;48.980;8.410;2022-07-23T06:00:53;100286.28;;;22.04;68.85
32789;BME280;19141;48.980;8.410;2022-07-23T06:03:19;100289.41;;;21.95;71.21
32789;BME280;19141;48.980;8.410;2022-07-23T06:05:45;100286.28;;;21.70;77.31
32789;BME280;19141;48.980;8.410;2022-07-23T06:08:11;100283.06;;;21.56;78.19
32789;BME280;19141;48.980;8.410;2022-07-23T06:10:36;100296.13;;;21.43;80.79
32789;BME280;19141;48.980;8.410;2022-07-23T06:13:02;100312.25;;;21.37;82.94
32789;BME280;19141;48.980;8.410;2022-07-23T06:15:27;100320.78;;;21.29;84.46
32789;BME280;19141;48.980;8.410;2022-07-23T06:17:53;100342.31;;;21.24;82.90
32789;BME280;19141;48.980;8.410;2022-07-23T06:20:19;100343.75;;;21.27;82.75
32789;BME280;19141;48.980;8.410;2022-07-23T06:22:44;100337.50;;;21.26;83.72
32789;BME280;19141;48.980;8.410;2022-07-23T06:25:11;100326.00;;;21.19;85.37
32789;BME280;19141;48.980;8.410;2022-07-23T06:27:36;100307.41;;;21.11;83.22
32789;BME280;19141;48.980;8.410;2022-07-23T06:30:02;100313.63;;;21.11;82.85
32789;BME280;19141;48.980;8.410;2022-07-23T06:32:27;100329.06;;;21.11;84.80
32789;BME280;19141;48.980;8.410;2022-07-23T06:34:53;100336.63;;;21.09;87.03
32789;BME280;19141;48.980;8.410;2022-07-23T06:37:20;100343.47;;;21.00;87.16
32789;BME280;19141;48.980;8.410;2022-07-23T06:39:45;100337.34;;;20.93;88.37
32789;BME280;19141;48.980;8.410;2022-07-23T06:42:11;100320.41;;;20.97;83.87
32789;BME280;19141;48.980;8.410;2022-07-23T06:44:42;100319.19;;;21.05;83.44
32789;BME280;19141;48.980;8.410;2022-07-23T06:47:08;100322.25;;;21.08;85.89
32789;BME280;19141;48.980;8.410;2022-07-23T06:49:34;100324.81;;;21.15;85.00
32789;BME280;19141;48.980;8.410;2022-07-23T06:52:00;100318.44;;;21.21;83.76
32789;BME280;19141;48.980;8.410;2022-07-23T06:54:25;100331.03;;;21.27;83.68
32789;BME280;19141;48.980;8.410;2022-07-23T06:56:50;100339.97;;;21.39;86.00
32789;BME280;19141;48.980;8.410;2022-07-23T06:59:16;100341.91;;;21.44;87.05
32789;BME280;19141;48.980;8.410;2022-07-23T07:01:42;100348.63;;;21.53;82.90
32789;BME280;19141;48.980;8.410;2022-07-23T07:04:07;100354.50;;;21.50;80.97
32789;BME280;19141;48.980;8.410;2022-07-23T07:06:33;100349.09;;;21.50;81.56
32789;BME280;19141;48.980;8.410;2022-07-23T07:08:59;100344.97;;;21.48;81.42
32789;BME280;19141;48.980;8.410;2022-07-23T07:11:24;100349.47;;;21.42;80.06
32789;BME280;19141;48.980;8.410;2022-07-23T07:13:51;100347.59;;;21.43;78.78
32789;BME280;19141;48.980;8.410;2022-07-23T07:16:16;100340.97;;;21.50;81.18
32789;BME280;19141;48.980;8.410;2022-07-23T07:18:42;100350.88;;;21.45;81.61
32789;BME280;19141;48.980;8.410;2022-07-23T07:21:07;100348.75;;;21.47;81.75
32789;BME280;19141;48.980;8.410;2022-07-23T07:23:33;100344.06;;;21.42;80.72
32789;BME280;19141;48.980;8.410;2022-07-23T07:25:58;100349.22;;;21.44;79.90
32789;BME280;19141;48.980;8.410;2022-07-23T07:28:23;100352.19;;;21.42;82.68
32789;BME280;19141;48.980;8.410;2022-07-23T07:30:49;100350.06;;;21.44;83.25
32789;BME280;19141;48.980;8.410;2022-07-23T07:33:14;100358.63;;;21.53;83.60
32789;BME280;19141;48.980;8.410;2022-07-23T07:35:40;100363.09;;;21.59;82.86
32789;BME280;19141;48.980;8.410;2022-07-23T07:38:05;100368.44;;;21.71;81.04
32789;BME280;19141;48.980;8.410;2022-07-23T07:40:31;100360.75;;;21.79;80.46
32789;BME280;19141;48.980;8.410;2022-07-23T07:42:56;100369.94;;;21.78;80.30
32789;BME280;19141;48.980;8.410;2022-07-23T07:45:22;100364.84;;;21.82;79.53
32789;BME280;19141;48.980;8.410;2022-07-23T07:47:48;100355.91;;;21.98;79.90
32789;BME280;19141;48.980;8.410;2022-07-23T07:50:14;100363.97;;;22.10;81.25
32789;BME280;19141;48.980;8.410;2022-07-23T07:52:39;100366.16;;;22.25;79.78
32789;BME280;19141;48.980;8.410;2022-07-23T07:55:07;100371.41;;;22.31;79.81
32789;BME280;19141;48.980;8.410;2022-07-23T07:57:32;100370.00;;;22.45;80.34
32789;BME280;19141;48.980;8.410;2022-07-23T07:59:58;100373.84;;;22.50;77.83
32789;BME280;19141;48.980;8.410;2022-07-23T08:02:24;100376.28;;;22.68;78.36
32789;BME280;19141;48.980;8.410;2022-07-23T08:04:49;100382.13;;;22.77;76.29
32789;BME280;19141;48.980;8.410;2022-07-23T08:07:15;100382.50;;;22.85;75.97
32789;BME280;19141;48.980;8.410;2022-07-23T08:09:41;100386.16;;;23.13;75.28
32789;BME280;19141;48.980;8.410;2022-07-23T08:12:06;100393.28;;;22.97;74.61
32789;BME280;19141;48.980;8.410;2022-07-23T08:14:32;100403.38;;;23.01;75.35
32789;BME280;19141;48.980;8.410;2022-07-23T08:16:57;100399.28;;;22.99;74.06
32789;BME280;19141;48.980;8.410;2022-07-23T08:19:23;100402.94;;;22.88;75.26
32789;BME280;19141;48.980;8.410;2022-07-23T08:21:48;100400.66;;;23.01;75.30
32789;BME280;19141;48.980;8.410;2022-07-23T08:24:14;100398.34;;;23.10;75.31
32789;BME280;19141;48.980;8.410;2022-07-23T08:26:39;100391.47;;;23.24;74.11
32789;BME280;19141;48.980;8.410;2022-07-23T08:29:06;100395.13;;;23.35;75.00
32789;BME280;19141;48.980;8.410;2022-07-23T08:31:31;100400.66;;;23.45;73.41
32789;BME280;19141;48.980;8.410;2022-07-23T08:33:59;100398.06;;;23.55;73.43
32789;BME280;19141;48.980;8.410;2022-07-23T08:36:25;100400.28;;;23.59;71.93
32789;BME280;19141;48.980;8.410;2022-07-23T08:38:53;100408.06;;;23.72;74.50
32789;BME280;19141;48.980;8.410;2022-07-23T08:41:19;100394.53;;;23.77;72.23
32789;BME280;19141;48.980;8.410;2022-07-23T08:43:45;100396.22;;;23.83;72.41
32789;BME280;19141;48.980;8.410;2022-07-23T08:46:11;100397.47;;;24.02;73.06
32789;BME280;19141;48.980;8.410;2022-07-23T08:48:38;100399.25;;;24.19;70.46
32789;BME280;19141;48.980;8.410;2022-07-23T08:51:05;100408.72;;;24.43;66.64
32789;BME280;19141;48.980;8.410;2022-07-23T08:53:32;100409.97;;;24.62;65.64
32789;BME280;19141;48.980;8.410;2022-07-23T08:56:02;100407.28;;;24.68;64.23
32789;BME280;19141;48.980;8.410;2022-07-23T08:58:29;100405.41;;;24.73;63.16
32789;BME280;19141;48.980;8.410;2022-07-23T09:00:55;100404.41;;;24.89;64.10
32789;BME280;19141;48.980;8.410;2022-07-23T09:03:26;100396.09;;;25.16;65.22
32789;BME280;19141;48.980;8.410;2022-07-23T09:05:53;100393.19;;;25.33;63.22
32789;BME280;19141;48.980;8.410;2022-07-23T09:08:21;100392.16;;;25.44;64.45
32789;BME280;19141;48.980;8.410;2022-07-23T09:10:51;100398.97;;;25.47;64.04
32789;BME280;19141;48.980;8.410;2022-07-23T09:15:51;100398.53;;;25.76;63.54
32789;BME280;19141;48.980;8.410;2022-07-23T09:18:17;100385.16;;;25.94;63.01
32789;BME280;19141;48.980;8.410;2022-07-23T09:20:43;100388.19;;;26.18;58.56
32789;BME280;19141;48.980;8.410;2022-07-23T09:23:09;100391.19;;;26.22;57.51
32789;BME280;19141;48.980;8.410;2022-07-23T09:25:34;100385.19;;;26.10;57.83
32789;BME280;19141;48.980;8.410;2022-07-23T09:28:00;100384.63;;;26.18;57.56
32789;BME280;19141;48.980;8.410;2022-07-23T09:30:32;100385.47;;;26.49;58.41
32789;BME280;19141;48.980;8.410;2022-07-23T09:33:12;100388.97;;;26.75;57.70
32789;BME280;19141;48.980;8.410;2022-07-23T09:35:44;100387.81;;;26.96;55.88
32789;BME280;19141;48.980;8.410;2022-07-23T09:38:09;100385.59;;;27.14;54.92
32789;BME280;19141;48.980;8.410;2022-07-23T09:40:35;100383.69;;;27.14;54.05
32789;BME280;19141;48.980;8.410;2022-07-23T09:43:00;100381.88;;;27.49;56.84
32789;BME280;19141;48.980;8.410;2022-07-23T09:45:25;100373.06;;;27.57;54.84
32789;BME280;19141;48.980;8.410;2022-07-23T09:48:09;100374.38;;;27.70;52.64
32789;BME280;19141;48.980;8.410;2022-07-23T09:50:35;100376.28;;;27.74;52.16
32789;BME280;19141;48.980;8.410;2022-07-23T09:53:01;100378.19;;;27.74;54.55
32789;BME280;19141;48.980;8.410;2022-07-23T09:55:32;100377.91;;;27.75;52.97
32789;BME280;19141;48.980;8.410;2022-07-23T09:58:08;100377.34;;;28.12;52.79
32789;BME280;19141;48.980;8.410;2022-07-23T10:00:37;100376.88;;;28.39;50.19
32789;BME280;19141;48.980;8.410;2022-07-23T10:03:05;100373.06;;;28.64;49.44
32789;BME280;19141;48.980;8.410;2022-07-23T10:05:40;100380.69;;;28.97;50.94
32789;BME280;19141;48.980;8.410;2022-07-23T10:08:27;100376.41;;;29.09;48.82
32789;BME280;19141;48.980;8.410;2022-07-23T10:11:26;100383.16;;;29.17;46.97
32789;BME280;19141;48.980;8.410;2022-07-23T10:14:01;100389.63;;;29.26;46.31
32789;BME280;19141;48.980;8.410;2022-07-23T10:16:40;100381.91;;;29.52;46.55
32789;BME280;19141;48.980;8.410;2022-07-23T10:19:06;100380.72;;;29.58;49.17
32789;BME280;19141;48.980;8.410;2022-07-23T10:21:44;100375.28;;;29.91;45.54
32789;BME280;19141;48.980;8.410;2022-07-23T10:30:09;100383.16;;;29.17;46.71
32789;BME280;19141;48.980;8.410;2022-07-23T10:35:42;100382.34;;;29.78;48.78
32789;BME280;19141;48.980;8.410;2022-07-23T10:38:25;100371.94;;;30.13;45.28
32789;BME280;19141;48.980;8.410;2022-07-23T10:40:57;100378.31;;;30.41;45.05
32789;BME280;19141;48.980;8.410;2022-07-23T10:43:22;100383.22;;;30.58;41.93
32789;BME280;19141;48.980;8.410;2022-07-23T10:45:48;100382.94;;;30.59;42.36
32789;BME280;19141;48.980;8.410;2022-07-23T10:48:19;100376.47;;;30.36;41.24
32789;BME280;19141;48.980;8.410;2022-07-23T10:59:21;100367.69;;;31.72;40.72
32789;BME280;19141;48.980;8.410;2022-07-23T11:01:47;100370.72;;;32.06;39.54
32789;BME280;19141;48.980;8.410;2022-07-23T11:04:12;100359.44;;;31.72;42.73
32789;BME280;19141;48.980;8.410;2022-07-23T11:09:38;100377.50;;;31.64;39.78
32789;BME280;19141;48.980;8.410;2022-07-23T11:25:09;100371.97;;;32.23;38.44
32789;BME280;19141;48.980;8.410;2022-07-23T11:27:41;100371.91;;;32.14;38.35
32789;BME280;19141;48.980;8.410;2022-07-23T11:30:08;100367.69;;;31.72;39.50
32789;BME280;19141;48.980;8.410;2022-07-23T11:32:37;100372.16;;;31.45;40.59
32789;BME280;19141;48.980;8.410;2022-07-23T11:35:27;100369.03;;;31.24;42.55
32789;BME280;19141;48.980;8.410;2022-07-23T11:37:56;100376.97;;;31.26;42.49
32789;BME280;19141;48.980;8.410;2022-07-23T11:40:27;100364.03;;;30.99;43.31
32789;BME280;19141;48.980;8.410;2022-07-23T11:43:05;100372.56;;;31.39;41.96
32789;BME280;19141;48.980;8.410;2022-07-23T11:45:34;100366.66;;;31.68;41.14
32789;BME280;19141;48.980;8.410;2022-07-23T11:48:00;100356.53;;;31.54;40.31
32789;BME280;19141;48.980;8.410;2022-07-23T11:50:26;100358.13;;;32.14;40.79
32789;BME280;19141;48.980;8.410;2022-07-23T11:52:53;100360.91;;;32.76;39.07
32789;BME280;19141;48.980;8.410;2022-07-23T11:55:19;100360.41;;;32.34;39.12
32789;BME280;19141;48.980;8.410;2022-07-23T11:57:45;100364.47;;;32.37;39.63
32789;BME280;19141;48.980;8.410;2022-07-23T12:02:40;100365.66;;;32.22;38.32
32789;BME280;19141;48.980;8.410;2022-07-23T12:05:07;100355.88;;;32.70;38.27
32789;BME280;19141;48.980;8.410;2022-07-23T12:07:37;100349.56;;;32.16;38.85
32789;BME280;19141;48.980;8.410;2022-07-23T12:10:13;100352.75;;;32.62;39.16
32789;BME280;19141;48.980;8.410;2022-07-23T12:12:42;100338.72;;;32.81;38.05
32789;BME280;19141;48.980;8.410;2022-07-23T12:15:09;100337.34;;;33.01;37.96
32789;BME280;19141;48.980;8.410;2022-07-23T12:17:36;100330.75;;;33.63;35.31
32789;BME280;19141;48.980;8.410;2022-07-23T12:20:05;100327.03;;;33.59;35.61
32789;BME280;19141;48.980;8.410;2022-07-23T12:22:39;100337.44;;;33.79;35.66
32789;BME280;19141;48.980;8.410;2022-07-23T12:25:08;100333.50;;;33.89;34.99
32789;BME280;19141;48.980;8.410;2022-07-23T12:27:35;100333.78;;;34.22;34.30
32789;BME280;19141;48.980;8.410;2022-07-23T12:30:17;100326.81;;;33.90;34.74
32789;BME280;19141;48.980;8.410;2022-07-23T12:32:46;100335.31;;;33.85;34.82
32789;BME280;19141;48.980;8.410;2022-07-23T12:35:13;100332.34;;;34.07;33.88
32789;BME280;19141;48.980;8.410;2022-07-23T12:37:44;100326.00;;;34.15;34.05
32789;BME280;19141;48.980;8.410;2022-07-23T12:40:26;100323.63;;;34.52;33.58
32789;BME280;19141;48.980;8.410;2022-07-23T12:42:57;100327.63;;;35.01;33.26
32789;BME280;19141;48.980;8.410;2022-07-23T12:45:24;100326.34;;;35.20;31.70
32789;BME280;19141;48.980;8.410;2022-07-23T12:48:01;100317.03;;;35.03;32.00
32789;BME280;19141;48.980;8.410;2022-07-23T12:56:22;100320.00;;;35.40;30.94
32789;BME280;19141;48.980;8.410;2022-07-23T12:58:55;100324.91;;;35.22;31.95
32789;BME280;19141;48.980;8.410;2022-07-23T13:01:23;100324.25;;;34.87;32.95
32789;BME280;19141;48.980;8.410;2022-07-23T13:06:20;100318.78;;;35.08;32.01
32789;BME280;19141;48.980;8.410;2022-07-23T13:08:46;100314.66;;;35.14;31.02
32789;BME280;19141;48.980;8.410;2022-07-23T13:11:11;100314.91;;;34.33;31.68
32789;BME280;19141;48.980;8.410;2022-07-23T13:13:36;100316.25;;;34.65;32.36
32789;BME280;19141;48.980;8.410;2022-07-23T13:16:02;100311.75;;;34.81;32.39
32789;BME280;19141;48.980;8.410;2022-07-23T13:18:28;100315.59;;;35.48;30.77
32789;BME280;19141;48.980;8.410;2022-07-23T13:20:54;100319.75;;;35.12;32.44
32789;BME280;19141;48.980;8.410;2022-07-23T13:23:21;100313.47;;;35.03;31.42
32789;BME280;19141;48.980;8.410;2022-07-23T13:25:47;100320.97;;;35.02;33.33
32789;BME280;19141;48.980;8.410;2022-07-23T13:28:14;100323.28;;;34.53;33.22
32789;BME280;19141;48.980;8.410;2022-07-23T13:30:41;100310.19;;;34.33;32.29
32789;BME280;19141;48.980;8.410;2022-07-23T13:33:06;100305.84;;;34.23;34.07
32789;BME280;19141;48.980;8.410;2022-07-23T13:35:34;100312.03;;;34.03;33.81
32789;BME280;19141;48.980;8.410;2022-07-23T13:38:00;100310.25;;;33.29;35.61
32789;BME280;19141;48.980;8.410;2022-07-23T13:40:26;100323.13;;;32.85;35.66
32789;BME280;19141;48.980;8.410;2022-07-23T13:42:51;100311.88;;;32.64;35.59
32789;BME280;19141;48.980;8.410;2022-07-23T13:45:17;100311.13;;;32.81;36.49
32789;BME280;19141;48.980;8.410;2022-07-23T13:47:42;100318.66;;;32.58;35.67
32789;BME280;19141;48.980;8.410;2022-07-23T13:50:08;100317.13;;;32.12;37.38
32789;BME280;19141;48.980;8.410;2022-07-23T13:52:33;100314.34;;;32.04;36.66
32789;BME280;19141;48.980;8.410;2022-07-23T13:55:08;100311.75;;;31.63;38.97
32789;BME280;19141;48.980;8.410;2022-07-23T13:57:34;100304.22;;;31.54;37.75
32789;BME280;19141;48.980;8.410;2022-07-23T13:59:59;100310.47;;;31.24;37.99
32789;BME280;19141;48.980;8.410;2022-07-23T14:02:25;100312.16;;;31.33;38.47
32789;BME280;19141;48.980;8.410;2022-07-23T14:04:51;100314.41;;;31.18;38.00
32789;BME280;19141;48.980;8.410;2022-07-23T14:07:16;100308.91;;;31.31;37.47
32789;BME280;19141;48.980;8.410;2022-07-23T14:09:42;100312.22;;;31.42;37.75
32789;BME280;19141;48.980;8.410;2022-07-23T14:12:08;100301.41;;;31.46;38.08
32789;BME280;19141;48.980;8.410;2022-07-23T14:14:34;100306.88;;;31.10;38.24
32789;BME280;19141;48.980;8.410;2022-07-23T14:16:59;100304.56;;;30.89;37.06
32789;BME280;19141;48.980;8.410;2022-07-23T14:19:24;100297.72;;;31.00;37.65
32789;BME280;19141;48.980;8.410;2022-07-23T14:21:50;100295.75;;;31.15;38.49
32789;BME280;19141;48.980;8.410;2022-07-23T14:24:16;100289.53;;;30.73;38.91
32789;BME280;19141;48.980;8.410;2022-07-23T14:26:41;100296.84;;;30.91;39.75
32789;BME280;19141;48.980;8.410;2022-07-23T14:29:07;100285.38;;;31.12;38.92
32789;BME280;19141;48.980;8.410;2022-07-23T14:31:32;100289.25;;;31.24;38.31
32789;BME280;19141;48.980;8.410;2022-07-23T14:33:58;100282.75;;;31.43;39.54
32789;BME280;19141;48.980;8.410;2022-07-23T14:36:25;100290.28;;;31.51;38.64
32789;BME280;19141;48.980;8.410;2022-07-23T14:38:50;100292.09;;;31.55;37.77
32789;BME280;19141;48.980;8.410;2022-07-23T14:41:16;100287.53;;;31.51;39.01
32789;BME280;19141;48.980;8.410;2022-07-23T14:43:42;100296.97;;;31.58;36.56
32789;BME280;19141;48.980;8.410;2022-07-23T14:46:07;100294.41;;;31.62;37.04
32789;BME280;19141;48.980;8.410;2022-07-23T14:48:33;100291.84;;;31.43;37.90
32789;BME280;19141;48.980;8.410;2022-07-23T14:50:58;100307.56;;;31.29;37.25
32789;BME280;19141;48.980;8.410;2022-07-23T14:53:24;100303.91;;;31.20;37.29
32789;BME280;19141;48.980;8.410;2022-07-23T14:55:49;100298.91;;;31.22;37.60
32789;BME280;19141;48.980;8.410;2022-07-23T14:58:14;100294.03;;;31.32;37.25
32789;BME280;19141;48.980;8.410;2022-07-23T15:00:40;100301.34;;;31.37;37.74
32789;BME280;19141;48.980;8.410;2022-07-23T15:03:05;100291.66;;;31.40;37.17
32789;BME280;19141;48.980;8.410;2022-07-23T15:05:31;100292.28;;;31.37;38.30
32789;BME280;19141;48.980;8.410;2022-07-23T15:07:56;100286.34;;;31.43;37.35
32789;BME280;19141;48.980;8.410;2022-07-23T15:10:22;100297.66;;;31.42;37.40
32789;BME280;19141;48.980;8.410;2022-07-23T15:12:48;100291.53;;;31.45;38.22
32789;BME280;19141;48.980;8.410;2022-07-23T15:15:13;100295.41;;;31.44;38.07
32789;BME280;19141;48.980;8.410;2022-07-23T15:17:39;100301.03;;;31.39;38.30
32789;BME280;19141;48.980;8.410;2022-07-23T15:20:05;100296.13;;;31.36;38.36
32789;BME280;19141;48.980;8.410;2022-07-23T15:22:30;100292.78;;;31.39;37.79
32789;BME280;19141;48.980;8.410;2022-07-23T15:24:56;100295.28;;;30.99;38.05
32789;BME280;19141;48.980;8.410;2022-07-23T15:27:21;100299.34;;;31.01;39.78
32789;BME280;19141;48.980;8.410;2022-07-23T15:29:47;100296.81;;;31.05;38.91
32789;BME280;19141;48.980;8.410;2022-07-23T15:32:12;100295.47;;;31.02;39.35
32789;BME280;19141;48.980;8.410;2022-07-23T15:34:38;100303.66;;;30.94;39.53
32789;BME280;19141;48.980;8.410;2022-07-23T15:37:04;100301.13;;;30.70;39.57
32789;BME280;19141;48.980;8.410;2022-07-23T15:39:32;100297.13;;;30.76;39.83
32789;BME280;19141;48.980;8.410;2022-07-23T15:41:59;100299.81;;;30.67;39.09
32789;BME280;19141;48.980;8.410;2022-07-23T15:44:25;100299.06;;;30.62;40.23
32789;BME280;19141;48.980;8.410;2022-07-23T15:46:50;100298.84;;;30.58;39.64
32789;BME280;19141;48.980;8.410;2022-07-23T15:49:16;100299.47;;;30.55;39.98
32789;BME280;19141;48.980;8.410;2022-07-23T15:51:41;100291.63;;;30.48;40.15
32789;BME280;19141;48.980;8.410;2022-07-23T15:54:07;100305.34;;;30.48;39.96
32789;BME280;19141;48.980;8.410;2022-07-23T15:56:32;100300.50;;;30.45;41.55
32789;BME280;19141;48.980;8.410;2022-07-23T15:58:57;100310.53;;;30.22;41.70
32789;BME280;19141;48.980;8.410;2022-07-23T16:01:23;100298.63;;;30.13;41.81
32789;BME280;19141;48.980;8.410;2022-07-23T16:03:49;100297.53;;;30.09;41.63
32789;BME280;19141;48.980;8.410;2022-07-23T16:06:15;100293.47;;;30.07;42.00
32789;BME280;19141;48.980;8.410;2022-07-23T16:08:41;100286.44;;;30.00;42.43
32789;BME280;19141;48.980;8.410;2022-07-23T16:11:06;100294.19;;;29.80;42.29
32789;BME280;19141;48.980;8.410;2022-07-23T16:13:32;100298.38;;;29.77;42.67
32789;BME280;19141;48.980;8.410;2022-07-23T16:15:57;100297.88;;;29.75;42.49
32789;BME280;19141;48.980;8.410;2022-07-23T16:18:23;100291.84;;;29.73;43.76
32789;BME280;19141;48.980;8.410;2022-07-23T16:20:51;100298.50;;;29.86;43.58
32789;BME280;19141;48.980;8.410;2022-07-23T16:23:17;100293.75;;;29.72;42.39
32789;BME280;19141;48.980;8.410;2022-07-23T16:25:43;100299.56;;;29.71;43.10
32789;BME280;19141;48.980;8.410;2022-07-23T16:28:09;100302.31;;;29.52;42.73
32789;BME280;19141;48.980;8.410;2022-07-23T16:30:34;100304.03;;;29.48;44.56
32789;BME280;19141;48.980;8.410;2022-07-23T16:33:01;100304.41;;;29.41;43.58
32789;BME280;19141;48.980;8.410;2022-07-23T16:35:27;100301.13;;;29.39;46.86
32789;BME280;19141;48.980;8.410;2022-07-23T16:37:53;100299.94;;;29.45;44.23
32789;BME280;19141;48.980;8.410;2022-07-23T16:40:19;100301.41;;;29.38;43.43
32789;BME280;19141;48.980;8.410;2022-07-23T16:42:45;100308.22;;;29.40;43.68
32789;BME280;19141;48.980;8.410;2022-07-23T16:45:11;100299.72;;;29.23;43.78
32789;BME280;19141;48.980;8.410;2022-07-23T16:47:37;100305.28;;;29.18;43.48
32789;BME280;19141;48.980;8.410;2022-07-23T16:50:04;100307.88;;;29.28;45.35
32789;BME280;19141;48.980;8.410;2022-07-23T16:52:30;100297.34;;;29.35;45.06
32789;BME280;19141;48.980;8.410;2022-07-23T16:54:56;100297.63;;;29.34;44.04
32789;BME280;19141;48.980;8.410;2022-07-23T16:57:22;100301.22;;;29.34;44.37
32789;BME280;19141;48.980;8.410;2022-07-23T16:59:48;100288.56;;;29.14;43.70
32789;BME280;19141;48.980;8.410;2022-07-23T17:02:13;100293.56;;;29.12;43.75
32789;BME280;19141;48.980;8.410;2022-07-23T17:04:39;100301.28;;;29.10;43.84
32789;BME280;19141;48.980;8.410;2022-07-23T17:07:04;100304.75;;;29.16;44.84
32789;BME280;19141;48.980;8.410;2022-07-23T17:09:33;100301.72;;;29.17;43.35
32789;BME280;19141;48.980;8.410;2022-07-23T17:11:59;100291.88;;;29.16;43.02
32789;BME280;19141;48.980;8.410;2022-07-23T17:14:24;100300.41;;;29.15;43.86
32789;BME280;19141;48.980;8.410;2022-07-23T17:16:50;100311.13;;;29.11;44.78
32789;BME280;19141;48.980;8.410;2022-07-23T17:19:15;100303.13;;;29.15;45.91
32789;BME280;19141;48.980;8.410;2022-07-23T17:21:41;100305.88;;;29.15;44.14
32789;BME280;19141;48.980;8.410;2022-07-23T17:24:06;100310.88;;;29.08;44.08
32789;BME280;19141;48.980;8.410;2022-07-23T17:26:32;100314.59;;;28.98;44.58
32789;BME280;19141;48.980;8.410;2022-07-23T17:28:59;100317.16;;;28.89;44.87
32789;BME280;19141;48.980;8.410;2022-07-23T17:31:24;100310.84;;;28.89;45.36
32789;BME280;19141;48.980;8.410;2022-07-23T17:33:50;100314.81;;;28.78;44.37
32789;BME280;19141;48.980;8.410;2022-07-23T17:36:16;100314.34;;;28.71;44.12
32789;BME280;19141;48.980;8.410;2022-07-23T17:38:41;100313.66;;;28.60;43.65
32789;BME280;19141;48.980;8.410;2022-07-23T17:41:07;100311.19;;;28.58;43.73
32789;BME280;19141;48.980;8.410;2022-07-23T17:43:32;100312.38;;;28.52;43.74
32789;BME280;19141;48.980;8.410;2022-07-23T17:45:57;100318.13;;;28.51;43.87
32789;BME280;19141;48.980;8.410;2022-07-23T17:48:23;100314.63;;;28.45;43.62
32789;BME280;19141;48.980;8.410;2022-07-23T17:50:51;100318.19;;;28.46;44.20
32789;BME280;19141;48.980;8.410;2022-07-23T17:53:16;100318.00;;;28.37;44.75
32789;BME280;19141;48.980;8.410;2022-07-23T17:55:42;100324.56;;;28.36;44.70
32789;BME280;19141;48.980;8.410;2022-07-23T17:58:08;100320.00;;;28.26;44.71